createdAt,value
2022-08-30T00:02:03.780Z,19.70
2022-08-30T00:04:33.810Z,19.70
2022-08-30T00:07:04.894Z,19.70
2022-08-30T00:09:35.221Z,19.60
2022-08-30T00:12:05.030Z,19.60
2022-08-30T00:14:34.712Z,19.60
2022-08-30T00:17:07.544Z,19.50
2022-08-30T00:19:38.026Z,19.50
2022-08-30T00:22:10.164Z,19.40
2022-08-30T00:24:39.818Z,19.50
2022-08-30T00:27:09.570Z,19.40
2022-08-30T00:29:39.236Z,19.40
2022-08-30T00:32:12.461Z,19.30
2022-08-30T00:34:42.119Z,19.40
2022-08-30T00:37:11.786Z,19.30
2022-08-30T00:39:41.528Z,19.30
2022-08-30T00:42:12.308Z,19.30
2022-08-30T00:44:42.950Z,19.30
2022-08-30T00:47:15.815Z,19.30
2022-08-30T00:49:50.608Z,19.30
2022-08-30T00:52:22.245Z,19.30
2022-08-30T00:54:54.709Z,19.30
2022-08-30T00:57:24.397Z,19.30
2022-08-30T00:59:54.254Z,19.30
2022-08-30T01:02:26.984Z,19.30
2022-08-30T01:04:57.620Z,19.30
2022-08-30T01:07:27.274Z,19.30
2022-08-30T01:09:58.210Z,19.30
2022-08-30T01:12:27.888Z,19.30
2022-08-30T01:14:57.608Z,19.40
2022-08-30T01:17:31.429Z,19.40
2022-08-30T01:20:04.632Z,19.40
2022-08-30T01:22:58.386Z,19.40
2022-08-30T01:25:32.537Z,19.40
2022-08-30T01:28:06.169Z,19.30
2022-08-30T01:30:38.922Z,19.20
2022-08-30T01:33:10.863Z,19.20
2022-08-30T01:35:48.936Z,19.20
2022-08-30T01:38:21.040Z,19.30
2022-08-30T01:40:53.573Z,19.20
2022-08-30T01:43:23.257Z,19.20
2022-08-30T01:45:52.959Z,19.20
2022-08-30T01:48:30.950Z,19.20
2022-08-30T01:51:01.383Z,19.20
2022-08-30T01:53:31.152Z,19.20
2022-08-30T01:56:03.416Z,19.20
2022-08-30T01:58:33.094Z,19.20
2022-08-30T02:01:02.849Z,19.20
2022-08-30T02:03:35.305Z,19.20
2022-08-30T02:06:07.221Z,19.20
2022-08-30T02:08:37.060Z,19.20
2022-08-30T02:11:09.985Z,19.20
2022-08-30T02:13:41.424Z,19.20
2022-08-30T02:16:13.752Z,19.10
2022-08-30T02:18:43.597Z,19.10
2022-08-30T02:21:14.612Z,19.00
2022-08-30T02:23:44.982Z,19.00
2022-08-30T02:26:17.399Z,19.00
2022-08-30T02:28:49.617Z,19.00
2022-08-30T02:31:20.674Z,19.00
2022-08-30T02:33:51.413Z,19.00
2022-08-30T02:36:21.646Z,18.90
2022-08-30T02:38:51.583Z,18.90
2022-08-30T02:41:24.795Z,18.90
2022-08-30T02:43:58.432Z,18.80
2022-08-30T02:46:33.209Z,18.80
2022-08-30T02:49:29.885Z,18.80
2022-08-30T02:51:54.390Z,18.80
2022-08-30T02:54:24.333Z,18.80
2022-08-30T02:56:57.412Z,18.70
2022-08-30T02:59:27.232Z,18.70
2022-08-30T03:01:56.896Z,18.70
2022-08-30T03:04:27.007Z,18.70
2022-08-30T03:06:57.375Z,18.70
2022-08-30T03:09:27.156Z,18.70
2022-08-30T03:11:59.403Z,18.60
2022-08-30T03:14:29.154Z,18.60
2022-08-30T03:16:58.960Z,18.70
2022-08-30T03:19:29.149Z,18.60
2022-08-30T03:21:58.917Z,18.30
2022-08-30T03:24:28.754Z,18.60
2022-08-30T03:27:01.353Z,18.60
2022-08-30T03:29:31.861Z,18.60
2022-08-30T03:32:01.765Z,18.60
2022-08-30T03:34:31.505Z,18.60
2022-08-30T03:37:01.300Z,18.60
2022-08-30T03:39:31.589Z,18.60
2022-08-30T03:42:03.919Z,18.60
2022-08-30T03:44:33.901Z,18.60
2022-08-30T03:47:03.584Z,18.60
2022-08-30T03:49:33.548Z,18.60
2022-08-30T03:52:03.217Z,18.60
2022-08-30T03:54:32.904Z,18.60
2022-08-30T03:57:05.580Z,18.50
2022-08-30T03:59:35.856Z,18.50
2022-08-30T04:02:05.623Z,18.60
2022-08-30T04:04:35.551Z,18.50
2022-08-30T04:07:05.274Z,18.50
2022-08-30T04:09:35.032Z,18.50
2022-08-30T04:12:07.683Z,18.40
2022-08-30T04:14:37.534Z,18.40
2022-08-30T04:17:07.518Z,18.40
2022-08-30T04:19:37.228Z,18.40
2022-08-30T04:22:07.429Z,18.50
2022-08-30T04:24:38.428Z,18.40
2022-08-30T04:27:11.439Z,18.40
2022-08-30T04:29:41.166Z,18.40
2022-08-30T04:32:10.818Z,18.40
2022-08-30T04:34:40.502Z,18.40
2022-08-30T04:37:10.310Z,18.40
2022-08-30T04:39:40.581Z,18.40
2022-08-30T04:42:13.070Z,18.40
2022-08-30T04:44:42.754Z,18.40
2022-08-30T04:47:12.436Z,18.40
2022-08-30T04:49:42.469Z,18.40
2022-08-30T04:52:12.183Z,18.40
2022-08-30T04:54:41.888Z,18.30
2022-08-30T04:57:14.271Z,18.30
2022-08-30T04:59:43.978Z,18.40
2022-08-30T05:02:14.832Z,18.40
2022-08-30T05:05:04.976Z,18.30
2022-08-30T05:07:35.936Z,18.30
2022-08-30T05:10:10.941Z,18.30
2022-08-30T05:12:44.136Z,18.30
2022-08-30T05:15:14.991Z,18.30
2022-08-30T05:17:45.008Z,18.40
2022-08-30T05:20:15.765Z,18.40
2022-08-30T05:22:53.316Z,18.40
2022-08-30T05:25:25.004Z,18.50
2022-08-30T05:27:57.809Z,18.50
2022-08-30T05:30:29.310Z,18.60
2022-08-30T05:32:58.959Z,18.60
2022-08-30T05:35:28.661Z,18.70
2022-08-30T05:37:58.440Z,18.70
2022-08-30T05:40:29.193Z,18.80
2022-08-30T05:43:01.658Z,18.90
2022-08-30T05:45:31.378Z,18.90
2022-08-30T05:48:01.778Z,19.00
2022-08-30T05:50:31.553Z,19.00
2022-08-30T05:53:01.268Z,19.10
2022-08-30T05:55:31.097Z,19.20
2022-08-30T05:58:03.451Z,19.30
2022-08-30T06:00:33.160Z,19.40
2022-08-30T06:03:03.418Z,19.40
2022-08-30T06:05:34.755Z,19.50
2022-08-30T06:08:05.384Z,19.60
2022-08-30T06:10:35.052Z,19.60
2022-08-30T06:13:07.388Z,19.70
2022-08-30T06:15:37.125Z,19.80
2022-08-30T06:18:06.964Z,19.80
2022-08-30T06:20:36.651Z,19.90
2022-08-30T06:23:06.384Z,20.00
2022-08-30T06:25:41.289Z,20.20
2022-08-30T06:28:14.695Z,20.20
2022-08-30T06:30:45.612Z,20.30
2022-08-30T06:33:15.272Z,20.40
2022-08-30T06:35:58.391Z,20.60
2022-08-30T06:38:29.694Z,20.60
2022-08-30T06:40:59.501Z,20.70
2022-08-30T06:43:31.883Z,20.80
2022-08-30T06:46:05.420Z,20.80
2022-08-30T06:48:38.529Z,20.90
2022-08-30T06:51:09.118Z,21.00
2022-08-30T06:53:39.220Z,21.10
2022-08-30T06:56:16.742Z,21.30
2022-08-30T06:58:49.261Z,21.30
2022-08-30T07:01:23.985Z,21.40
2022-08-30T07:03:55.489Z,21.50
2022-08-30T07:06:26.591Z,21.50
2022-08-30T07:08:57.002Z,21.60
2022-08-30T07:11:32.874Z,21.70
2022-08-30T07:14:05.963Z,21.80
2022-08-30T07:16:36.144Z,21.90
2022-08-30T07:19:04.356Z,22.00
2022-08-30T07:21:37.565Z,22.10
2022-08-30T07:24:10.221Z,22.20
2022-08-30T07:26:43.189Z,22.20
2022-08-30T07:29:15.615Z,22.30
2022-08-30T07:31:46.301Z,22.40
2022-08-30T07:34:16.089Z,22.40
2022-08-30T07:36:45.828Z,22.40
2022-08-30T07:39:15.513Z,22.50
2022-08-30T07:41:45.269Z,22.40
2022-08-30T07:44:17.890Z,22.50
2022-08-30T07:46:47.882Z,22.50
2022-08-30T07:49:18.146Z,22.60
2022-08-30T07:51:47.929Z,22.60
2022-08-30T07:54:17.718Z,22.60
2022-08-30T07:56:48.641Z,22.80
2022-08-30T07:59:20.904Z,22.90
2022-08-30T08:01:50.763Z,23.00
2022-08-30T08:04:22.033Z,23.00
2022-08-30T08:06:51.735Z,23.10
2022-08-30T08:09:21.479Z,23.10
2022-08-30T08:11:51.184Z,23.10
2022-08-30T08:14:24.033Z,23.20
2022-08-30T08:16:53.848Z,23.30
2022-08-30T08:19:23.808Z,23.40
2022-08-30T08:22:19.616Z,23.40
2022-08-30T08:24:46.545Z,23.50
2022-08-30T08:27:16.258Z,23.50
2022-08-30T08:29:48.526Z,23.60
2022-08-30T08:32:18.218Z,23.60
2022-08-30T08:34:47.899Z,23.70
2022-08-30T08:37:18.506Z,23.70
2022-08-30T08:39:52.534Z,23.70
2022-08-30T08:42:29.578Z,23.80
2022-08-30T08:45:10.989Z,23.80
2022-08-30T08:47:44.323Z,23.90
2022-08-30T08:50:18.595Z,23.90
2022-08-30T08:53:07.876Z,24.00
2022-08-30T08:55:38.254Z,24.10
2022-08-30T08:58:08.005Z,24.20
2022-08-30T09:00:40.711Z,24.30
2022-08-30T09:03:16.410Z,24.40
2022-08-30T09:05:47.666Z,24.50
2022-08-30T09:08:20.169Z,24.60
2022-08-30T09:10:56.925Z,24.70
2022-08-30T09:13:28.608Z,24.80
2022-08-30T09:16:02.401Z,24.90
2022-08-30T09:18:46.902Z,25.00
2022-08-30T09:21:25.764Z,25.10
2022-08-30T09:24:01.425Z,25.20
2022-08-30T09:26:35.323Z,25.30
2022-08-30T09:29:05.860Z,25.40
2022-08-30T09:31:57.989Z,25.40
2022-08-30T09:34:36.197Z,25.60
2022-08-30T09:37:05.879Z,25.70
2022-08-30T09:39:41.514Z,25.80
2022-08-30T09:42:19.050Z,25.90
2022-08-30T09:44:48.963Z,26.00
2022-08-30T09:47:27.372Z,26.30
2022-08-30T09:50:07.688Z,26.30
2022-08-30T09:52:55.862Z,26.40
2022-08-30T09:55:47.613Z,26.50
2022-08-30T09:58:30.896Z,26.60
2022-08-30T10:01:09.452Z,26.60
2022-08-30T10:03:49.946Z,26.70
2022-08-30T10:06:29.977Z,26.90
